LFBZ/BIQ METAR and TAF weather

Enter ICAO airport designator
Station Type Date Time Source
LFBZ METAR 2018/12/13 20:00 UTC NOAA

LFBZ 132000Z AUTO 31015KT 9999 BKN022/// BKN049/// BKN056/// ///TCU 12/09 Q1011 TEMPO 30020G40KT 3000 SHRA BKN008 BKN020TCU


Station Type Date Time Source
LFBZ Decoded METAR 2018/12/13 20:00 UTC NOAA

Biarritz, France (LFBZ) 43-28N 001-32W 71M
Dec 13, 2018 - 03:00 PM EST / 2018.12.13 2000 UTC
Wind: from the NW (310 degrees) at 17 MPH (15 KT):0
Visibility: greater than 7 mile(s):0
Sky conditions: mostly cloudy
Weather: Towering cumulus clouds observed
Temperature: 53 F (12 C)
Dew Point: 48 F (9 C)
Relative Humidity: 81%
Pressure (altimeter): 29.85 in. Hg (1011 hPa)
ob: LFBZ 132000Z AUTO 31015KT 9999 BKN022/// BKN049/// BKN056/// ///TCU 12/09 Q1011 TEMPO 30020G40KT 3000 SHRA BKN008 BKN020TCU
cycle: 20

Station Type Date Time Source
LFBZ TAF 2018/12/13 18:21 UTC NOAA

TAF LFBZ 131700Z 1318/1418 30015G30KT 9999 BKN015 PROB40
TEMPO 1318/1409 30020G40KT 3000 SHRA BKN008 BKN020TCU PROB30
TEMPO 1409/1415 4000 -RA OVC008
BECMG 1415/1417 30012KT


Example: see airport list